Time;durP1;ratioP1;P1;durP2;ratioP2;P2;SDS_P1;SDS_P2;PMS_P1;PMS_P2;Temp;Humidity;BMP_temperature;BMP_pressure;BME280_temperature;BME280_humidity;BME280_pressure;Samples;Min_cycle;Max_cycle;Signal;HPM_P1;HPM_P2
2023/05/18 02:00:53;;;;;;;6.68;1.90;;;;;;;;;;4859284;27;20504;-78
2023/05/18 02:03:19;;;;;;;9.73;1.52;;;;;;;;;;4295065;33;20181;-78
2023/05/18 02:05:45;;;;;;;9.73;2.20;;;;;;;;;;4295763;33;20124;-78
2023/05/18 02:08:12;;;;;;;9.48;1.50;;;;;;;;;;4294321;33;20071;-74
2023/05/18 02:10:38;;;;;;;11.95;1.62;;;;;;;;;;4294739;33;20040;-79
2023/05/18 02:13:06;;;;;;;4.65;2.15;;;;;;;;;;4295987;33;20537;-78
2023/05/18 02:15:32;;;;;;;11.90;3.70;;;;;;;;;;4294361;33;20040;-78
2023/05/18 02:17:58;;;;;;;7.12;2.33;;;;;;;;;;4295419;33;20121;-81
2023/05/18 02:20:24;;;;;;;5.05;1.67;;;;;;;;;;4293397;33;20116;-78
2023/05/18 02:22:51;;;;;;;10.77;2.03;;;;;;;;;;4263320;33;20053;-81
2023/05/18 02:25:17;;;;;;;5.80;1.75;;;;;;;;;;4264563;33;20507;-78
2023/05/18 02:27:44;;;;;;;7.05;1.95;;;;;;;;;;4264537;33;20049;-78
2023/05/18 02:30:14;;;;;;;5.40;2.10;;;;;;;;;;4264362;33;20875;-77
2023/05/18 02:32:41;;;;;;;3.78;1.90;;;;;;;;;;4263808;33;20044;-80
2023/05/18 02:35:07;;;;;;;8.50;1.85;;;;;;;;;;4264148;33;20041;-80
2023/05/18 02:37:38;;;;;;;5.70;1.50;;;;;;;;;;4264807;33;20368;-80
2023/05/18 02:40:14;;;;;;;6.60;1.70;;;;;;;;;;4264635;33;20514;-80
2023/05/18 02:42:41;;;;;;;7.25;2.05;;;;;;;;;;4264437;33;20371;-79
2023/05/18 02:45:07;;;;;;;12.20;1.33;;;;;;;;;;4278757;33;20157;-78
2023/05/18 02:47:34;;;;;;;4.47;1.67;;;;;;;;;;4278597;33;20672;-78
2023/05/18 02:50:00;;;;;;;7.45;1.73;;;;;;;;;;4277211;33;20412;-78
2023/05/18 02:52:27;;;;;;;5.93;1.55;;;;;;;;;;4268591;33;20075;-76
2023/05/18 02:54:55;;;;;;;6.30;1.50;;;;;;;;;;4290044;33;20461;-77
2023/05/18 02:57:22;;;;;;;7.03;1.73;;;;;;;;;;4291638;33;20448;-77
2023/05/18 02:59:49;;;;;;;7.00;2.00;;;;;;;;;;4293098;33;20033;-79
2023/05/18 03:02:16;;;;;;;12.05;2.42;;;;;;;;;;4290896;33;20491;-75
2023/05/18 03:04:43;;;;;;;11.40;1.65;;;;;;;;;;4293439;33;20071;-78
2023/05/18 03:07:09;;;;;;;9.02;1.75;;;;;;;;;;4292713;33;20098;-78
2023/05/18 03:09:35;;;;;;;8.68;2.22;;;;;;;;;;4293882;33;20033;-77
2023/05/18 03:12:02;;;;;;;4.95;1.50;;;;;;;;;;4278161;33;20069;-75
2023/05/18 03:14:28;;;;;;;9.13;1.90;;;;;;;;;;4262081;33;20038;-78
2023/05/18 03:16:56;;;;;;;12.45;1.83;;;;;;;;;;4264251;33;20062;-79
2023/05/18 03:19:22;;;;;;;17.98;2.37;;;;;;;;;;4264376;33;20841;-77
2023/05/18 03:21:49;;;;;;;5.18;1.48;;;;;;;;;;4277102;33;20511;-78
2023/05/18 03:24:16;;;;;;;4.28;1.58;;;;;;;;;;4276685;33;20033;-77
2023/05/18 03:26:43;;;;;;;8.05;1.67;;;;;;;;;;4282976;33;20082;-78
2023/05/18 03:29:10;;;;;;;10.20;1.80;;;;;;;;;;4293155;33;20078;-79
2023/05/18 03:31:36;;;;;;;5.40;1.50;;;;;;;;;;4293114;33;20058;-77
2023/05/18 03:34:02;;;;;;;5.93;1.52;;;;;;;;;;4283716;33;20428;-78
2023/05/18 03:36:29;;;;;;;5.78;1.45;;;;;;;;;;4276691;33;20583;-78
2023/05/18 03:38:55;;;;;;;7.68;1.87;;;;;;;;;;4278656;33;20100;-77
2023/05/18 03:41:21;;;;;;;10.13;1.50;;;;;;;;;;4278256;33;20174;-78
2023/05/18 03:43:49;;;;;;;5.85;1.48;;;;;;;;;;4278631;33;20042;-78
2023/05/18 03:46:15;;;;;;;13.13;1.60;;;;;;;;;;4278153;33;20050;-77
2023/05/18 03:48:42;;;;;;;5.80;1.77;;;;;;;;;;4276968;33;20038;-77
2023/05/18 03:51:08;;;;;;;5.47;1.58;;;;;;;;;;4277972;33;20040;-80
2023/05/18 03:53:35;;;;;;;4.62;1.75;;;;;;;;;;4304623;33;20076;-80
2023/05/18 03:56:01;;;;;;;5.32;1.30;;;;;;;;;;4309792;33;20085;-79
2023/05/18 03:58:28;;;;;;;6.85;2.05;;;;;;;;;;4301413;33;20489;-76
2023/05/18 04:00:55;;;;;;;4.53;1.45;;;;;;;;;;4301379;33;20041;-77
2023/05/18 04:03:23;;;;;;;12.27;1.60;;;;;;;;;;4301044;33;20058;-79
2023/05/18 04:05:50;;;;;;;4.62;1.62;;;;;;;;;;4302402;33;20067;-78
2023/05/18 04:08:17;;;;;;;4.90;1.70;;;;;;;;;;4301994;33;20062;-78
2023/05/18 04:10:44;;;;;;;16.17;2.08;;;;;;;;;;4298924;33;20096;-78
2023/05/18 04:13:11;;;;;;;5.15;1.62;;;;;;;;;;4299872;33;20067;-77
2023/05/18 04:15:37;;;;;;;5.50;1.58;;;;;;;;;;4293910;33;20610;-78
2023/05/18 04:18:04;;;;;;;10.32;2.33;;;;;;;;;;4294008;33;20110;-80
2023/05/18 04:20:30;;;;;;;5.55;1.65;;;;;;;;;;4291062;33;20045;-79
2023/05/18 04:22:56;;;;;;;4.80;2.00;;;;;;;;;;4291737;33;20889;-78
2023/05/18 04:25:26;;;;;;;12.05;2.40;;;;;;;;;;4295702;33;20057;-80
2023/05/18 04:27:53;;;;;;;11.63;2.17;;;;;;;;;;4296370;33;20045;-78
2023/05/18 04:30:23;;;;;;;7.43;1.60;;;;;;;;;;4296358;33;20041;-79
2023/05/18 04:32:49;;;;;;;3.47;2.25;;;;;;;;;;4295011;33;20038;-74
2023/05/18 04:35:17;;;;;;;4.85;1.83;;;;;;;;;;4294989;33;20390;-78
2023/05/18 04:37:43;;;;;;;12.37;2.12;;;;;;;;;;4263643;33;20053;-80
2023/05/18 04:40:17;;;;;;;5.78;1.77;;;;;;;;;;4262283;33;20395;-79
2023/05/18 04:42:46;;;;;;;5.10;1.83;;;;;;;;;;4261580;33;20060;-75
2023/05/18 04:45:16;;;;;;;12.07;2.60;;;;;;;;;;4257031;33;20985;-78
2023/05/18 04:47:45;;;;;;;4.40;1.15;;;;;;;;;;4257926;33;20047;-81
2023/05/18 04:50:13;;;;;;;6.97;2.15;;;;;;;;;;4258345;33;20505;-80
2023/05/18 04:52:40;;;;;;;7.95;1.27;;;;;;;;;;4256398;33;20042;-75
2023/05/18 04:55:09;;;;;;;7.97;1.65;;;;;;;;;;4260811;33;20407;-79
2023/05/18 04:57:36;;;;;;;11.40;1.42;;;;;;;;;;4253446;33;20061;-79
2023/05/18 05:00:04;;;;;;;5.78;1.58;;;;;;;;;;4237025;33;20050;-81
2023/05/18 05:02:31;;;;;;;10.75;2.60;;;;;;;;;;4238180;33;20066;-81
2023/05/18 05:04:57;;;;;;;2.53;0.90;;;;;;;;;;4234342;33;20098;-79
2023/05/18 05:07:24;;;;;;;3.58;1.40;;;;;;;;;;4234917;33;20054;-77
2023/05/18 05:09:50;;;;;;;4.90;2.30;;;;;;;;;;4262675;33;20399;-80
2023/05/18 05:12:16;;;;;;;5.45;1.40;;;;;;;;;;4265022;33;20405;-83
2023/05/18 05:14:43;;;;;;;7.65;1.35;;;;;;;;;;4241026;33;20517;-83
2023/05/18 05:17:09;;;;;;;15.18;1.58;;;;;;;;;;4247923;33;20071;-79
2023/05/18 05:19:35;;;;;;;8.40;1.48;;;;;;;;;;4251056;33;20708;-81
2023/05/18 05:22:01;;;;;;;11.93;2.05;;;;;;;;;;4222519;33;20043;-82
2023/05/18 05:24:27;;;;;;;7.05;1.90;;;;;;;;;;4222643;33;20089;-77
2023/05/18 05:26:54;;;;;;;4.60;1.30;;;;;;;;;;4221811;33;20170;-78
2023/05/18 05:29:21;;;;;;;7.18;1.87;;;;;;;;;;4218866;33;20062;-76
2023/05/18 05:31:46;;;;;;;12.43;1.55;;;;;;;;;;4197497;34;20069;-77
2023/05/18 05:34:13;;;;;;;9.85;1.55;;;;;;;;;;4208948;34;20073;-76
2023/05/18 05:36:40;;;;;;;6.00;1.37;;;;;;;;;;4208804;34;20186;-77
2023/05/18 05:39:06;;;;;;;14.18;1.40;;;;;;;;;;4208130;34;20088;-76
2023/05/18 05:41:32;;;;;;;4.32;1.62;;;;;;;;;;4207666;34;20107;-74
2023/05/18 05:43:59;;;;;;;7.85;2.00;;;;;;;;;;4221136;33;20354;-78
2023/05/18 05:46:28;;;;;;;1.48;1.10;;;;;;;;;;4243863;33;20030;-78
2023/05/18 05:48:56;;;;;;;7.30;1.15;;;;;;;;;;4250184;33;20041;-75
2023/05/18 05:51:23;;;;;;;6.53;1.58;;;;;;;;;;4245624;33;20110;-75
2023/05/18 05:53:49;;;;;;;4.50;1.27;;;;;;;;;;4259978;33;20120;-78
2023/05/18 05:56:16;;;;;;;2.65;1.05;;;;;;;;;;4265339;33;20175;-78
2023/05/18 05:58:43;;;;;;;4.70;1.73;;;;;;;;;;4263280;33;20105;-76
2023/05/18 06:01:09;;;;;;;4.72;1.50;;;;;;;;;;4266420;33;20148;-77
2023/05/18 06:03:36;;;;;;;8.43;1.90;;;;;;;;;;4252928;33;20096;-77
2023/05/18 06:06:03;;;;;;;3.75;1.15;;;;;;;;;;4274594;33;20041;-75
2023/05/18 06:08:29;;;;;;;8.05;1.60;;;;;;;;;;4277355;33;20796;-76
2023/05/18 06:10:56;;;;;;;3.33;1.20;;;;;;;;;;4289662;33;20541;-74
2023/05/18 06:13:22;;;;;;;3.87;1.33;;;;;;;;;;4292416;33;20636;-78
2023/05/18 06:15:49;;;;;;;7.80;0.93;;;;;;;;;;4291313;33;20471;-78
2023/05/18 06:18:15;;;;;;;3.10;1.05;;;;;;;;;;4291537;33;20074;-81
2023/05/18 06:20:42;;;;;;;3.42;1.48;;;;;;;;;;4299007;33;20699;-75
2023/05/18 06:23:09;;;;;;;4.78;1.85;;;;;;;;;;4278046;33;20060;-74
2023/05/18 06:25:35;;;;;;;15.38;1.67;;;;;;;;;;4277927;33;20433;-77
2023/05/18 06:28:02;;;;;;;5.10;1.45;;;;;;;;;;4278058;33;20451;-75
2023/05/18 06:30:28;;;;;;;6.22;1.45;;;;;;;;;;4276183;33;20180;-77
2023/05/18 06:32:56;;;;;;;3.78;1.80;;;;;;;;;;4277970;33;20115;-78
2023/05/18 06:35:22;;;;;;;7.97;1.58;;;;;;;;;;4264563;33;20435;-75
2023/05/18 06:37:49;;;;;;;1.75;0.75;;;;;;;;;;4271203;33;20071;-76
2023/05/18 06:40:15;;;;;;;11.50;1.45;;;;;;;;;;4268781;33;20080;-71
2023/05/18 06:42:41;;;;;;;2.03;1.33;;;;;;;;;;4274844;33;20371;-75
2023/05/18 06:45:11;;;;;;;12.48;2.20;;;;;;;;;;4248874;33;20049;-74
2023/05/18 06:47:38;;;;;;;4.65;1.30;;;;;;;;;;4249482;33;20053;-75
2023/05/18 06:50:04;;;;;;;9.60;1.67;;;;;;;;;;4256534;33;20176;-75
2023/05/18 06:52:31;;;;;;;2.50;1.40;;;;;;;;;;4251905;33;20053;-74
2023/05/18 06:55:00;;;;;;;3.22;1.10;;;;;;;;;;4248824;33;20054;-74
2023/05/18 06:57:26;;;;;;;7.62;1.33;;;;;;;;;;4284353;33;20052;-74
2023/05/18 06:59:52;;;;;;;4.35;1.60;;;;;;;;;;4293586;33;20148;-74
2023/05/18 07:02:20;;;;;;;8.95;1.23;;;;;;;;;;4292301;33;20071;-74
2023/05/18 07:04:52;;;;;;;7.32;1.27;;;;;;;;;;4292570;33;20049;-73
2023/05/18 07:07:20;;;;;;;2.33;0.95;;;;;;;;;;4294294;33;20045;-74
2023/05/18 07:09:48;;;;;;;2.65;1.20;;;;;;;;;;4294859;33;20045;-73
2023/05/18 07:12:21;;;;;;;5.90;1.37;;;;;;;;;;4294306;33;20070;-73
2023/05/18 07:14:47;;;;;;;9.88;1.33;;;;;;;;;;4293204;33;20098;-73
2023/05/18 07:17:13;;;;;;;6.53;1.83;;;;;;;;;;4294810;33;20710;-74
2023/05/18 07:19:39;;;;;;;6.65;1.52;;;;;;;;;;4295343;33;20470;-74
2023/05/18 07:22:06;;;;;;;7.28;1.70;;;;;;;;;;4295767;33;20067;-74
2023/05/18 07:24:32;;;;;;;7.53;3.00;;;;;;;;;;4294755;33;20412;-74
2023/05/18 07:26:58;;;;;;;1.08;0.85;;;;;;;;;;4295837;33;20086;-74
2023/05/18 07:29:24;;;;;;;6.45;1.25;;;;;;;;;;4307770;33;20061;-73
2023/05/18 07:31:51;;;;;;;6.53;1.50;;;;;;;;;;4309245;33;20128;-73
2023/05/18 07:34:16;;;;;;;4.12;1.15;;;;;;;;;;4309003;33;20048;-75
2023/05/18 07:36:43;;;;;;;6.60;1.67;;;;;;;;;;4306030;33;20096;-76
2023/05/18 07:39:16;;;;;;;2.67;1.12;;;;;;;;;;4309033;33;20099;-75
2023/05/18 07:41:44;;;;;;;2.08;0.77;;;;;;;;;;4307554;33;20101;-76
2023/05/18 07:44:10;;;;;;;2.72;1.20;;;;;;;;;;4299456;33;20063;-74
2023/05/18 07:46:36;;;;;;;3.95;1.10;;;;;;;;;;4298091;33;20064;-74
2023/05/18 07:49:02;;;;;;;1.65;1.00;;;;;;;;;;4298727;33;20310;-74
2023/05/18 07:51:29;;;;;;;5.30;0.88;;;;;;;;;;4297138;33;20104;-74
2023/05/18 07:53:55;;;;;;;4.10;1.40;;;;;;;;;;4298062;33;20111;-74
2023/05/18 07:56:21;;;;;;;3.33;1.12;;;;;;;;;;4298331;33;20044;-75
2023/05/18 07:58:47;;;;;;;2.03;1.05;;;;;;;;;;4297896;33;20037;-73
2023/05/18 08:01:13;;;;;;;7.07;1.42;;;;;;;;;;4301151;33;20334;-75
2023/05/18 08:03:40;;;;;;;2.62;1.25;;;;;;;;;;4303076;33;20078;-73
2023/05/18 08:06:06;;;;;;;2.85;1.58;;;;;;;;;;4300770;33;20088;-73
2023/05/18 08:08:34;;;;;;;11.88;1.75;;;;;;;;;;4269232;33;20093;-74
2023/05/18 08:11:01;;;;;;;9.02;1.35;;;;;;;;;;4271203;33;20754;-72
2023/05/18 08:13:27;;;;;;;2.75;1.48;;;;;;;;;;4271239;33;20052;-75
2023/05/18 08:15:53;;;;;;;1.67;1.40;;;;;;;;;;4275266;33;20053;-75
2023/05/18 08:18:21;;;;;;;4.03;1.30;;;;;;;;;;4273163;33;20064;-74
2023/05/18 08:20:48;;;;;;;6.45;1.83;;;;;;;;;;4267339;33;20049;-72
2023/05/18 08:23:14;;;;;;;9.20;1.62;;;;;;;;;;4269001;33;20037;-75
2023/05/18 08:25:47;;;;;;;3.12;1.23;;;;;;;;;;4272176;33;20067;-75
2023/05/18 08:28:13;;;;;;;3.80;1.75;;;;;;;;;;4271580;33;20038;-77
2023/05/18 08:30:40;;;;;;;4.68;1.58;;;;;;;;;;4273297;33;20075;-76
2023/05/18 08:33:06;;;;;;;0.95;0.95;;;;;;;;;;4266976;33;20062;-74
2023/05/18 08:35:33;;;;;;;6.03;1.35;;;;;;;;;;4267414;33;20078;-78
2023/05/18 08:37:59;;;;;;;9.18;1.20;;;;;;;;;;4265860;33;20462;-76
2023/05/18 08:40:31;;;;;;;3.87;0.77;;;;;;;;;;4290003;33;20151;-74
2023/05/18 08:43:01;;;;;;;1.00;0.77;;;;;;;;;;4292556;33;20074;-73
2023/05/18 08:45:34;;;;;;;1.58;1.00;;;;;;;;;;4294182;33;20049;-77
2023/05/18 08:48:01;;;;;;;3.72;1.30;;;;;;;;;;4294713;33;20036;-76
2023/05/18 08:50:30;;;;;;;1.45;0.95;;;;;;;;;;4295538;33;20078;-74
2023/05/18 08:52:59;;;;;;;5.53;1.23;;;;;;;;;;4294306;33;20038;-72
2023/05/18 08:55:26;;;;;;;3.28;1.30;;;;;;;;;;4295853;33;20734;-75
2023/05/18 08:57:58;;;;;;;5.40;1.10;;;;;;;;;;4296977;33;20078;-75
2023/05/18 09:00:25;;;;;;;3.83;1.10;;;;;;;;;;4296245;33;20049;-76
2023/05/18 09:02:51;;;;;;;6.32;1.50;;;;;;;;;;4294906;33;20208;-76
2023/05/18 09:05:19;;;;;;;2.47;1.15;;;;;;;;;;4291675;33;20079;-73
2023/05/18 09:07:45;;;;;;;2.10;1.50;;;;;;;;;;4295771;33;20096;-74
2023/05/18 09:10:12;;;;;;;0.80;0.80;;;;;;;;;;4295702;33;20125;-74
2023/05/18 09:12:40;;;;;;;4.25;2.05;;;;;;;;;;4294733;33;20182;-73
2023/05/18 09:15:08;;;;;;;2.90;1.20;;;;;;;;;;4293904;33;20074;-71
2023/05/18 09:17:34;;;;;;;2.75;0.93;;;;;;;;;;4294698;33;20048;-73
2023/05/18 09:20:04;;;;;;;6.68;1.30;;;;;;;;;;4295428;33;20067;-75
2023/05/18 09:22:31;;;;;;;2.65;1.15;;;;;;;;;;4295272;33;20071;-72
2023/05/18 09:24:57;;;;;;;8.73;1.25;;;;;;;;;;4295229;33;20115;-73
2023/05/18 09:27:23;;;;;;;2.08;1.20;;;;;;;;;;4284153;33;20037;-72
2023/05/18 09:29:56;;;;;;;1.65;0.85;;;;;;;;;;4277591;33;20064;-74
2023/05/18 09:32:22;;;;;;;1.05;0.62;;;;;;;;;;4278977;33;20071;-76
2023/05/18 09:34:49;;;;;;;5.18;1.30;;;;;;;;;;4278944;33;20093;-75
2023/05/18 09:37:16;;;;;;;1.67;1.02;;;;;;;;;;4277925;33;20098;-73
2023/05/18 09:39:43;;;;;;;4.50;0.60;;;;;;;;;;4276434;33;20036;-75
2023/05/18 09:42:09;;;;;;;2.55;0.73;;;;;;;;;;4279662;33;20026;-75
2023/05/18 09:44:35;;;;;;;1.62;1.05;;;;;;;;;;4278456;33;20503;-73
2023/05/18 09:47:06;;;;;;;2.70;1.02;;;;;;;;;;4278372;33;20085;-75
2023/05/18 09:49:32;;;;;;;0.70;0.70;;;;;;;;;;4276314;33;20557;-72
2023/05/18 09:51:59;;;;;;;3.15;1.12;;;;;;;;;;4273084;33;20084;-74
2023/05/18 09:54:25;;;;;;;0.82;0.82;;;;;;;;;;4275762;33;20041;-74
2023/05/18 09:56:51;;;;;;;3.15;0.95;;;;;;;;;;4276839;33;20041;-73
2023/05/18 09:59:17;;;;;;;12.82;1.00;;;;;;;;;;4278351;33;20045;-75
2023/05/18 10:02:00;;;;;;;6.40;1.25;;;;;;;;;;4281214;33;21657;-72
2023/05/18 10:04:36;;;;;;;1.83;1.05;;;;;;;;;;4282131;33;21527;-74
2023/05/18 10:07:06;;;;;;;0.98;0.98;;;;;;;;;;4277132;33;20041;-74
2023/05/18 10:09:33;;;;;;;2.97;0.93;;;;;;;;;;4277992;33;20053;-72
2023/05/18 10:12:00;;;;;;;1.92;0.80;;;;;;;;;;4277985;33;20041;-74
2023/05/18 10:14:29;;;;;;;2.17;0.95;;;;;;;;;;4278734;33;20041;-73
2023/05/18 10:16:55;;;;;;;4.60;0.90;;;;;;;;;;4283334;33;20359;-74
2023/05/18 10:19:21;;;;;;;0.75;0.75;;;;;;;;;;4253178;33;20045;-75
2023/05/18 10:21:48;;;;;;;0.68;0.68;;;;;;;;;;4251889;33;20257;-73
2023/05/18 10:24:16;;;;;;;2.25;0.73;;;;;;;;;;4255838;33;20415;-75
2023/05/18 10:26:42;;;;;;;0.95;0.95;;;;;;;;;;4254715;33;20064;-74
2023/05/18 10:29:09;;;;;;;2.37;0.82;;;;;;;;;;4257044;33;20072;-75
2023/05/18 10:31:36;;;;;;;0.93;0.93;;;;;;;;;;4254677;33;20397;-74
2023/05/18 10:34:03;;;;;;;2.30;1.50;;;;;;;;;;4246819;33;20058;-75
2023/05/18 10:36:31;;;;;;;1.35;0.80;;;;;;;;;;4247726;33;20042;-74
2023/05/18 10:38:58;;;;;;;1.02;0.73;;;;;;;;;;4248925;33;20535;-73
2023/05/18 10:41:25;;;;;;;2.58;0.90;;;;;;;;;;4246871;33;20178;-74
2023/05/18 10:43:52;;;;;;;1.65;0.80;;;;;;;;;;4247642;33;20050;-74
2023/05/18 10:46:20;;;;;;;1.87;0.88;;;;;;;;;;4244757;33;20092;-75
2023/05/18 10:48:47;;;;;;;3.62;1.58;;;;;;;;;;4246623;33;20108;-74
2023/05/18 10:51:13;;;;;;;2.15;0.70;;;;;;;;;;4285206;33;20070;-75
2023/05/18 10:53:42;;;;;;;1.85;1.10;;;;;;;;;;4293193;33;20061;-75
2023/05/18 10:56:09;;;;;;;0.68;0.68;;;;;;;;;;4291187;33;20045;-72
2023/05/18 10:58:35;;;;;;;0.93;0.80;;;;;;;;;;4293800;33;20697;-73
2023/05/18 11:01:05;;;;;;;4.55;1.30;;;;;;;;;;4462195;27;20078;-72
2023/05/18 11:03:32;;;;;;;1.60;0.95;;;;;;;;;;4274649;33;20072;-74
2023/05/18 11:06:11;;;;;;;3.40;1.00;;;;;;;;;;4279204;33;20072;-72
2023/05/18 11:08:42;;;;;;;0.60;0.60;;;;;;;;;;4277877;33;20044;-74
2023/05/18 11:11:08;;;;;;;2.95;0.90;;;;;;;;;;4277218;33;20530;-72
2023/05/18 11:13:34;;;;;;;1.48;0.50;;;;;;;;;;4278651;33;20061;-72
2023/05/18 11:16:03;;;;;;;2.15;0.90;;;;;;;;;;4277195;33;20041;-72
2023/05/18 11:18:40;;;;;;;64.25;25.48;;;;;;;;;;4280050;33;20057;-71
2023/05/18 11:21:19;;;;;;;1.62;1.27;;;;;;;;;;4275334;33;20037;-73
2023/05/18 11:24:04;;;;;;;1.58;1.48;;;;;;;;;;4279409;33;20049;-73
2023/05/18 11:26:31;;;;;;;2.53;1.17;;;;;;;;;;4278008;33;20058;-71
2023/05/18 11:28:57;;;;;;;5.25;0.80;;;;;;;;;;4278039;33;20057;-73
2023/05/18 11:31:41;;;;;;;1.20;1.00;;;;;;;;;;4271274;33;20053;-74
2023/05/18 11:34:28;;;;;;;0.80;0.80;;;;;;;;;;4292426;33;20049;-72
2023/05/18 11:36:55;;;;;;;3.47;0.80;;;;;;;;;;4277223;33;20041;-74
2023/05/18 11:39:22;;;;;;;1.23;0.95;;;;;;;;;;4290407;33;20079;-72
2023/05/18 11:41:57;;;;;;;1.65;1.15;;;;;;;;;;4274684;33;20067;-71
2023/05/18 11:44:26;;;;;;;1.00;0.77;;;;;;;;;;4263211;33;20127;-73
2023/05/18 11:46:52;;;;;;;1.42;1.33;;;;;;;;;;4259625;33;20923;-74
2023/05/18 11:49:22;;;;;;;1.80;1.02;;;;;;;;;;4265159;33;20067;-73
2023/05/18 11:52:03;;;;;;;5.53;2.17;;;;;;;;;;4263844;33;20058;-71
2023/05/18 11:54:53;;;;;;;1.13;1.03;;;;;;;;;;4265086;33;20477;-72
2023/05/18 11:57:22;;;;;;;4.68;1.75;;;;;;;;;;4242485;33;20136;-74
2023/05/18 11:59:53;;;;;;;3.37;0.88;;;;;;;;;;4249995;33;20467;-76
2023/05/18 12:02:20;;;;;;;2.58;1.10;;;;;;;;;;4249386;33;20069;-73
2023/05/18 12:04:49;;;;;;;6.18;1.08;;;;;;;;;;4251030;33;20410;-73
2023/05/18 12:07:16;;;;;;;2.70;1.20;;;;;;;;;;4250698;33;20101;-73
2023/05/18 12:09:43;;;;;;;2.28;1.02;;;;;;;;;;4248732;33;20172;-73
2023/05/18 12:12:10;;;;;;;1.90;0.90;;;;;;;;;;4248022;33;20129;-73
2023/05/18 12:14:37;;;;;;;5.85;1.08;;;;;;;;;;4247856;33;20081;-72
2023/05/18 12:17:03;;;;;;;1.60;1.20;;;;;;;;;;4245540;33;20034;-73
2023/05/18 12:19:35;;;;;;;1.42;1.30;;;;;;;;;;4244474;33;20054;-72
2023/05/18 12:22:03;;;;;;;4.90;1.20;;;;;;;;;;4237239;33;20042;-73
2023/05/18 12:24:29;;;;;;;1.52;0.98;;;;;;;;;;4235402;33;20066;-73
2023/05/18 12:26:59;;;;;;;0.90;0.82;;;;;;;;;;4238267;33;20877;-73
2023/05/18 12:29:25;;;;;;;2.10;1.05;;;;;;;;;;4266138;33;20057;-73
2023/05/18 12:31:51;;;;;;;2.25;1.05;;;;;;;;;;4275572;33;20072;-74
2023/05/18 12:34:30;;;;;;;1.23;1.05;;;;;;;;;;4271020;33;20093;-73
2023/05/18 12:36:56;;;;;;;1.50;1.25;;;;;;;;;;4265004;33;20149;-74
2023/05/18 12:39:23;;;;;;;3.08;1.00;;;;;;;;;;4266820;33;20046;-74
2023/05/18 12:41:49;;;;;;;2.35;1.10;;;;;;;;;;4266047;33;20052;-74
2023/05/18 12:44:22;;;;;;;5.75;1.10;;;;;;;;;;4292283;33;20168;-73
2023/05/18 12:46:48;;;;;;;2.15;1.17;;;;;;;;;;4293317;33;20086;-73
2023/05/18 12:49:17;;;;;;;0.85;0.85;;;;;;;;;;4278794;33;20054;-73
2023/05/18 12:51:43;;;;;;;6.05;1.05;;;;;;;;;;4275325;33;20041;-73
2023/05/18 12:54:09;;;;;;;5.03;1.10;;;;;;;;;;4277832;33;20073;-73
2023/05/18 12:57:08;;;;;;;6.95;2.20;;;;;;;;;;4250133;33;20046;-73
2023/05/18 12:59:46;;;;;;;3.65;1.27;;;;;;;;;;4192925;34;20123;-73
2023/05/18 13:02:23;;;;;;;3.22;1.20;;;;;;;;;;4193213;34;20131;-73
2023/05/18 13:05:00;;;;;;;1.42;1.10;;;;;;;;;;4192555;34;20094;-72
2023/05/18 13:07:26;;;;;;;2.53;1.08;;;;;;;;;;4192715;34;20217;-73
2023/05/18 13:09:55;;;;;;;0.77;0.77;;;;;;;;;;4192261;34;20055;-73
2023/05/18 13:12:40;;;;;;;1.85;1.08;;;;;;;;;;4193171;34;20051;-73
2023/05/18 13:15:26;;;;;;;3.83;1.27;;;;;;;;;;4194054;34;20081;-74
2023/05/18 13:17:58;;;;;;;5.72;1.20;;;;;;;;;;4191946;34;20119;-73
2023/05/18 13:20:25;;;;;;;;;;;;;;;;;;4200397;34;20413;-72
2023/05/18 13:22:50;;;;;;;0.90;0.73;;;;;;;;;;4207710;34;19972;-73
2023/05/18 13:25:17;;;;;;;2.05;1.20;;;;;;;;;;4206639;34;20491;-73
2023/05/18 13:27:47;;;;;;;2.92;1.02;;;;;;;;;;4218815;33;20046;-73
2023/05/18 13:30:13;;;;;;;2.42;1.10;;;;;;;;;;4222775;33;20063;-73
2023/05/18 13:32:39;;;;;;;2.08;1.05;;;;;;;;;;4223167;33;20425;-73
2023/05/18 13:35:06;;;;;;;1.17;1.00;;;;;;;;;;4250645;33;20050;-74
2023/05/18 13:37:32;;;;;;;1.02;0.80;;;;;;;;;;4280258;33;20071;-75
2023/05/18 13:39:58;;;;;;;1.12;1.05;;;;;;;;;;4245817;33;20058;-74
2023/05/18 13:42:24;;;;;;;0.98;0.95;;;;;;;;;;4245958;33;20038;-74
2023/05/18 13:44:51;;;;;;;11.55;5.37;;;;;;;;;;4249731;33;20089;-75
2023/05/18 13:47:16;;;;;;;3.33;2.00;;;;;;;;;;4249555;33;20068;-75
2023/05/18 13:49:43;;;;;;;2.10;1.10;;;;;;;;;;4248879;33;20476;-74
2023/05/18 13:52:09;;;;;;;0.80;0.80;;;;;;;;;;4248125;33;20057;-73
2023/05/18 13:54:35;;;;;;;61.97;20.15;;;;;;;;;;4247308;33;20487;-74
2023/05/18 13:57:01;;;;;;;3.53;1.55;;;;;;;;;;4249186;33;20522;-74
2023/05/18 13:59:27;;;;;;;1.62;1.25;;;;;;;;;;4249453;33;20046;-73
2023/05/18 14:01:53;;;;;;;1.48;1.00;;;;;;;;;;4251245;33;20071;-73
2023/05/18 14:04:20;;;;;;;1.17;1.00;;;;;;;;;;4263550;33;20143;-73
2023/05/18 14:06:46;;;;;;;1.08;1.08;;;;;;;;;;4260245;33;20063;-73
2023/05/18 14:09:12;;;;;;;1.62;0.98;;;;;;;;;;4263300;33;20062;-73
2023/05/18 14:11:38;;;;;;;1.23;1.10;;;;;;;;;;4275513;33;20102;-73
2023/05/18 14:14:05;;;;;;;2.15;0.50;;;;;;;;;;4280345;33;20383;-74
2023/05/18 14:16:31;;;;;;;7.55;2.97;;;;;;;;;;4279745;33;20071;-74
2023/05/18 14:18:57;;;;;;;2.53;0.93;;;;;;;;;;4277944;33;20053;-74
2023/05/18 14:21:23;;;;;;;2.62;0.82;;;;;;;;;;4280693;33;20079;-74
2023/05/18 14:23:50;;;;;;;1.60;0.90;;;;;;;;;;4279727;33;20065;-74
2023/05/18 14:26:16;;;;;;;1.95;1.12;;;;;;;;;;4280175;33;20071;-74
2023/05/18 14:28:42;;;;;;;3.78;1.23;;;;;;;;;;4279830;33;20058;-74
2023/05/18 14:31:08;;;;;;;2.78;1.17;;;;;;;;;;4280182;33;20041;-73
2023/05/18 14:33:35;;;;;;;1.50;0.65;;;;;;;;;;4280518;33;20041;-73
2023/05/18 14:36:01;;;;;;;2.20;0.95;;;;;;;;;;4280073;33;20108;-74
2023/05/18 14:38:27;;;;;;;4.43;1.52;;;;;;;;;;4280779;33;20053;-74
2023/05/18 14:40:53;;;;;;;5.47;1.15;;;;;;;;;;4279115;33;20211;-73
2023/05/18 14:43:20;;;;;;;1.05;1.05;;;;;;;;;;4278916;33;20061;-73
2023/05/18 14:45:46;;;;;;;3.20;0.85;;;;;;;;;;4279885;33;20068;-74
2023/05/18 14:48:12;;;;;;;3.92;1.02;;;;;;;;;;4280400;33;20475;-72
2023/05/18 14:50:38;;;;;;;3.75;1.60;;;;;;;;;;4277736;33;20049;-72
2023/05/18 14:53:05;;;;;;;2.20;1.12;;;;;;;;;;4278886;33;20077;-73
2023/05/18 14:55:31;;;;;;;4.32;0.80;;;;;;;;;;4281505;33;20087;-72
2023/05/18 14:57:57;;;;;;;7.05;1.00;;;;;;;;;;4280518;33;20071;-73
2023/05/18 15:00:23;;;;;;;1.55;0.88;;;;;;;;;;4285959;33;20183;-73
2023/05/18 15:02:50;;;;;;;3.17;1.10;;;;;;;;;;4291732;33;20040;-72
2023/05/18 15:05:16;;;;;;;3.90;1.10;;;;;;;;;;4291071;33;20044;-72
2023/05/18 15:07:42;;;;;;;2.28;1.20;;;;;;;;;;4302234;33;20044;-73
2023/05/18 15:10:09;;;;;;;1.55;0.85;;;;;;;;;;4291796;33;20068;-72
2023/05/18 15:12:36;;;;;;;1.42;1.20;;;;;;;;;;4291097;33;20078;-71
2023/05/18 15:15:02;;;;;;;0.70;0.70;;;;;;;;;;4289060;33;20056;-72
2023/05/18 15:17:28;;;;;;;5.47;1.27;;;;;;;;;;4278741;33;20343;-74
2023/05/18 15:19:54;;;;;;;2.72;1.12;;;;;;;;;;4277984;33;20053;-73
2023/05/18 15:22:21;;;;;;;3.67;1.10;;;;;;;;;;4276243;33;20510;-74
2023/05/18 15:24:48;;;;;;;2.22;1.30;;;;;;;;;;4275055;33;20451;-73
2023/05/18 15:27:15;;;;;;;1.35;0.90;;;;;;;;;;4276470;33;20075;-74
2023/05/18 15:29:41;;;;;;;1.00;1.00;;;;;;;;;;4275847;33;20391;-73
2023/05/18 15:32:08;;;;;;;9.65;1.10;;;;;;;;;;4253809;33;20049;-73
2023/05/18 15:34:34;;;;;;;4.12;1.65;;;;;;;;;;4233691;33;20054;-73
2023/05/18 15:37:01;;;;;;;1.80;1.10;;;;;;;;;;4233116;33;21038;-73
2023/05/18 15:39:27;;;;;;;0.88;0.80;;;;;;;;;;4244904;33;20046;-71
2023/05/18 15:41:55;;;;;;;1.83;1.12;;;;;;;;;;4256910;33;20045;-74
2023/05/18 15:44:21;;;;;;;1.73;1.10;;;;;;;;;;4251901;33;20053;-74
2023/05/18 15:46:47;;;;;;;1.60;1.27;;;;;;;;;;4235108;33;20059;-72
2023/05/18 15:49:13;;;;;;;1.90;0.98;;;;;;;;;;4250267;33;20076;-74
2023/05/18 15:51:40;;;;;;;2.22;1.15;;;;;;;;;;4246006;33;20050;-73
2023/05/18 15:54:06;;;;;;;2.25;1.02;;;;;;;;;;4244917;33;20244;-73
2023/05/18 15:56:32;;;;;;;1.40;0.80;;;;;;;;;;4239556;33;20630;-71
2023/05/18 15:58:59;;;;;;;2.80;1.02;;;;;;;;;;4236075;33;20050;-73
2023/05/18 16:01:26;;;;;;;3.17;1.02;;;;;;;;;;4239066;33;20081;-73
2023/05/18 16:03:52;;;;;;;0.88;0.65;;;;;;;;;;4236097;33;20116;-73
2023/05/18 16:06:19;;;;;;;3.58;1.15;;;;;;;;;;4216932;34;20043;-73
2023/05/18 16:08:46;;;;;;;2.53;1.75;;;;;;;;;;4220133;33;20054;-72
2023/05/18 16:11:13;;;;;;;1.65;1.10;;;;;;;;;;4221989;33;20422;-74
2023/05/18 16:13:40;;;;;;;2.55;1.10;;;;;;;;;;4221349;33;20056;-74
2023/05/18 16:16:08;;;;;;;1.77;1.67;;;;;;;;;;4221465;33;20114;-73
2023/05/18 16:18:35;;;;;;;3.47;1.90;;;;;;;;;;4218882;33;20078;-71
2023/05/18 16:21:01;;;;;;;1.25;1.15;;;;;;;;;;4221135;33;20098;-73
2023/05/18 16:23:27;;;;;;;1.62;1.45;;;;;;;;;;4244126;33;20067;-73
2023/05/18 16:25:54;;;;;;;9.80;1.42;;;;;;;;;;4247042;33;20097;-73
2023/05/18 16:28:20;;;;;;;3.58;2.60;;;;;;;;;;4248745;33;20421;-72
2023/05/18 16:30:46;;;;;;;2.03;1.83;;;;;;;;;;4248458;33;20054;-72
2023/05/18 16:33:12;;;;;;;2.55;1.83;;;;;;;;;;4250423;33;20102;-72
2023/05/18 16:35:38;;;;;;;1.00;1.00;;;;;;;;;;4246918;33;20068;-73
2023/05/18 16:38:04;;;;;;;2.83;1.37;;;;;;;;;;4246267;33;20502;-72
2023/05/18 16:40:31;;;;;;;2.50;1.85;;;;;;;;;;4238227;33;20439;-73
2023/05/18 16:42:57;;;;;;;2.65;1.15;;;;;;;;;;4240851;33;20042;-73
2023/05/18 16:45:23;;;;;;;2.87;1.42;;;;;;;;;;4244345;33;20093;-74